sensor_id;sensor_type;location;lat;lon;timestamp;pressure;altitude;pressure_sealevel;temperature;humidity
35647;BME280;28680;45.642;13.756;2023-01-25T00:00:20;102489.81;;;8.20;100.00
35647;BME280;28680;45.642;13.756;2023-01-25T00:02:46;102487.78;;;8.27;100.00
35647;BME280;28680;45.642;13.756;2023-01-25T00:05:12;102478.00;;;8.10;100.00
35647;BME280;28680;45.642;13.756;2023-01-25T00:07:37;102483.97;;;8.14;100.00
35647;BME280;28680;45.642;13.756;2023-01-25T00:10:03;102475.75;;;8.23;100.00
35647;BME280;28680;45.642;13.756;2023-01-25T00:12:29;102481.91;;;8.00;100.00
35647;BME280;28680;45.642;13.756;2023-01-25T00:14:55;102477.28;;;8.29;100.00
35647;BME280;28680;45.642;13.756;2023-01-25T00:17:21;102485.88;;;7.88;100.00
35647;BME280;28680;45.642;13.756;2023-01-25T00:19:47;102477.94;;;8.12;100.00
35647;BME280;28680;45.642;13.756;2023-01-25T00:22:13;102478.47;;;8.20;100.00
35647;BME280;28680;45.642;13.756;2023-01-25T00:24:38;102472.75;;;8.32;100.00
35647;BME280;28680;45.642;13.756;2023-01-25T00:27:04;102482.97;;;8.38;100.00
35647;BME280;28680;45.642;13.756;2023-01-25T00:29:30;102488.84;;;8.23;100.00
35647;BME280;28680;45.642;13.756;2023-01-25T00:37:27;102479.72;;;8.11;100.00
35647;BME280;28680;45.642;13.756;2023-01-25T00:39:53;102479.47;;;8.39;100.00
35647;BME280;28680;45.642;13.756;2023-01-25T00:42:19;102484.81;;;8.36;100.00
35647;BME280;28680;45.642;13.756;2023-01-25T00:44:47;102482.44;;;8.08;100.00
35647;BME280;28680;45.642;13.756;2023-01-25T00:47:13;102489.03;;;7.96;100.00
35647;BME280;28680;45.642;13.756;2023-01-25T00:49:41;102492.78;;;7.89;100.00
35647;BME280;28680;45.642;13.756;2023-01-25T00:52:08;102504.09;;;7.90;100.00
35647;BME280;28680;45.642;13.756;2023-01-25T00:54:34;102511.09;;;7.89;100.00
35647;BME280;28680;45.642;13.756;2023-01-25T00:57:00;102504.38;;;7.82;100.00
35647;BME280;28680;45.642;13.756;2023-01-25T00:59:26;102504.66;;;7.98;100.00
35647;BME280;28680;45.642;13.756;2023-01-25T01:01:53;102510.84;;;7.73;100.00
35647;BME280;28680;45.642;13.756;2023-01-25T01:04:20;102498.66;;;7.72;100.00
35647;BME280;28680;45.642;13.756;2023-01-25T01:06:51;102501.22;;;7.74;100.00
35647;BME280;28680;45.642;13.756;2023-01-25T01:09:19;102499.19;;;7.58;100.00
35647;BME280;28680;45.642;13.756;2023-01-25T01:11:45;102508.22;;;7.73;100.00
35647;BME280;28680;45.642;13.756;2023-01-25T01:14:12;102499.59;;;7.71;100.00
35647;BME280;28680;45.642;13.756;2023-01-25T01:16:38;102487.56;;;8.11;100.00
35647;BME280;28680;45.642;13.756;2023-01-25T01:19:04;102503.84;;;7.74;100.00
35647;BME280;28680;45.642;13.756;2023-01-25T01:21:30;102505.47;;;7.76;100.00
35647;BME280;28680;45.642;13.756;2023-01-25T01:23:57;102492.31;;;8.02;100.00
35647;BME280;28680;45.642;13.756;2023-01-25T01:26:22;102494.38;;;8.15;100.00
35647;BME280;28680;45.642;13.756;2023-01-25T01:28:48;102493.38;;;8.18;100.00
35647;BME280;28680;45.642;13.756;2023-01-25T01:31:22;102483.75;;;7.98;100.00
35647;BME280;28680;45.642;13.756;2023-01-25T01:33:54;102508.03;;;8.22;100.00
35647;BME280;28680;45.642;13.756;2023-01-25T01:36:24;102509.16;;;7.94;100.00
35647;BME280;28680;45.642;13.756;2023-01-25T01:38:50;102505.25;;;7.83;100.00
35647;BME280;28680;45.642;13.756;2023-01-25T01:41:17;102503.94;;;7.94;100.00
35647;BME280;28680;45.642;13.756;2023-01-25T01:43:43;102515.66;;;7.60;100.00
35647;BME280;28680;45.642;13.756;2023-01-25T01:51:23;102505.25;;;7.59;100.00
35647;BME280;28680;45.642;13.756;2023-01-25T01:57:17;102499.81;;;7.41;100.00
35647;BME280;28680;45.642;13.756;2023-01-25T01:59:51;102501.84;;;7.33;100.00
35647;BME280;28680;45.642;13.756;2023-01-25T02:02:19;102509.25;;;7.91;100.00
35647;BME280;28680;45.642;13.756;2023-01-25T02:04:47;102496.19;;;7.91;100.00
35647;BME280;28680;45.642;13.756;2023-01-25T02:07:31;102504.38;;;7.60;100.00
35647;BME280;28680;45.642;13.756;2023-01-25T02:09:59;102496.25;;;7.68;100.00
35647;BME280;28680;45.642;13.756;2023-01-25T02:12:25;102499.81;;;7.41;100.00
35647;BME280;28680;45.642;13.756;2023-01-25T02:14:53;102497.50;;;7.34;100.00
35647;BME280;28680;45.642;13.756;2023-01-25T02:17:34;102483.13;;;7.46;100.00
35647;BME280;28680;45.642;13.756;2023-01-25T02:20:32;102493.63;;;7.44;100.00
35647;BME280;28680;45.642;13.756;2023-01-25T02:25:36;102501.47;;;7.20;100.00
35647;BME280;28680;45.642;13.756;2023-01-25T02:28:20;102495.16;;;7.26;100.00
35647;BME280;28680;45.642;13.756;2023-01-25T02:30:47;102486.72;;;7.18;100.00
35647;BME280;28680;45.642;13.756;2023-01-25T02:33:13;102490.41;;;7.37;100.00
35647;BME280;28680;45.642;13.756;2023-01-25T02:35:44;102487.56;;;7.44;100.00
35647;BME280;28680;45.642;13.756;2023-01-25T02:38:16;102486.41;;;7.27;100.00
35647;BME280;28680;45.642;13.756;2023-01-25T02:40:48;102484.25;;;7.15;100.00
35647;BME280;28680;45.642;13.756;2023-01-25T02:43:16;102480.09;;;7.33;100.00
35647;BME280;28680;45.642;13.756;2023-01-25T02:45:46;102488.28;;;7.23;100.00
35647;BME280;28680;45.642;13.756;2023-01-25T02:48:15;102473.69;;;7.18;100.00
35647;BME280;28680;45.642;13.756;2023-01-25T02:50:41;102483.47;;;7.13;100.00
35647;BME280;28680;45.642;13.756;2023-01-25T02:53:06;102478.34;;;7.10;100.00
35647;BME280;28680;45.642;13.756;2023-01-25T02:55:32;102476.84;;;7.02;100.00
35647;BME280;28680;45.642;13.756;2023-01-25T02:57:58;102482.44;;;7.17;100.00
35647;BME280;28680;45.642;13.756;2023-01-25T03:00:24;102488.72;;;7.11;100.00
35647;BME280;28680;45.642;13.756;2023-01-25T03:02:50;102494.41;;;7.22;100.00
35647;BME280;28680;45.642;13.756;2023-01-25T03:05:15;102491.16;;;7.16;100.00
35647;BME280;28680;45.642;13.756;2023-01-25T03:07:41;102481.69;;;7.37;100.00
35647;BME280;28680;45.642;13.756;2023-01-25T03:10:08;102505.03;;;7.41;100.00
35647;BME280;28680;45.642;13.756;2023-01-25T03:12:34;102490.03;;;7.23;100.00
35647;BME280;28680;45.642;13.756;2023-01-25T03:15:00;102492.41;;;7.06;100.00
35647;BME280;28680;45.642;13.756;2023-01-25T03:17:26;102501.09;;;7.06;100.00
35647;BME280;28680;45.642;13.756;2023-01-25T03:19:52;102514.41;;;6.98;100.00
35647;BME280;28680;45.642;13.756;2023-01-25T03:22:18;102499.97;;;7.13;100.00
35647;BME280;28680;45.642;13.756;2023-01-25T03:24:44;102498.38;;;7.09;100.00
35647;BME280;28680;45.642;13.756;2023-01-25T03:27:10;102495.34;;;7.20;100.00
35647;BME280;28680;45.642;13.756;2023-01-25T03:29:37;102506.22;;;7.33;100.00
35647;BME280;28680;45.642;13.756;2023-01-25T03:32:04;102495.53;;;7.15;100.00
35647;BME280;28680;45.642;13.756;2023-01-25T03:34:29;102501.19;;;7.28;100.00
35647;BME280;28680;45.642;13.756;2023-01-25T03:36:55;102508.50;;;7.18;100.00
35647;BME280;28680;45.642;13.756;2023-01-25T03:39:21;102508.56;;;7.17;100.00
35647;BME280;28680;45.642;13.756;2023-01-25T03:41:47;102511.25;;;7.14;100.00
35647;BME280;28680;45.642;13.756;2023-01-25T03:44:13;102499.69;;;7.45;100.00
35647;BME280;28680;45.642;13.756;2023-01-25T03:46:41;102500.75;;;7.86;100.00
35647;BME280;28680;45.642;13.756;2023-01-25T03:49:07;102500.66;;;7.42;100.00
35647;BME280;28680;45.642;13.756;2023-01-25T03:51:34;102489.97;;;7.48;100.00
35647;BME280;28680;45.642;13.756;2023-01-25T03:54:00;102496.19;;;7.46;100.00
35647;BME280;28680;45.642;13.756;2023-01-25T03:56:26;102498.44;;;7.31;100.00
35647;BME280;28680;45.642;13.756;2023-01-25T03:58:52;102484.75;;;7.25;100.00
35647;BME280;28680;45.642;13.756;2023-01-25T04:01:18;102489.00;;;7.03;100.00
35647;BME280;28680;45.642;13.756;2023-01-25T04:03:44;102482.28;;;6.96;100.00
35647;BME280;28680;45.642;13.756;2023-01-25T04:06:09;102485.25;;;6.86;100.00
35647;BME280;28680;45.642;13.756;2023-01-25T04:08:35;102479.91;;;6.90;100.00
35647;BME280;28680;45.642;13.756;2023-01-25T04:11:07;102471.41;;;6.83;100.00
35647;BME280;28680;45.642;13.756;2023-01-25T04:13:35;102476.03;;;6.77;100.00
35647;BME280;28680;45.642;13.756;2023-01-25T04:16:03;102476.69;;;6.82;100.00
35647;BME280;28680;45.642;13.756;2023-01-25T04:18:29;102472.16;;;6.87;100.00
35647;BME280;28680;45.642;13.756;2023-01-25T04:20:56;102465.34;;;6.83;100.00
35647;BME280;28680;45.642;13.756;2023-01-25T04:23:24;102458.59;;;6.77;100.00
35647;BME280;28680;45.642;13.756;2023-01-25T04:26:00;102464.56;;;6.81;100.00
35647;BME280;28680;45.642;13.756;2023-01-25T04:28:26;102457.75;;;6.77;100.00
35647;BME280;28680;45.642;13.756;2023-01-25T04:30:54;102453.06;;;6.87;100.00
35647;BME280;28680;45.642;13.756;2023-01-25T04:33:20;102445.41;;;6.80;100.00
35647;BME280;28680;45.642;13.756;2023-01-25T04:35:46;102445.41;;;6.80;100.00
35647;BME280;28680;45.642;13.756;2023-01-25T04:38:12;102434.88;;;6.83;100.00
35647;BME280;28680;45.642;13.756;2023-01-25T04:40:39;102441.44;;;6.70;100.00
35647;BME280;28680;45.642;13.756;2023-01-25T04:43:05;102439.41;;;6.78;100.00
35647;BME280;28680;45.642;13.756;2023-01-25T04:45:31;102440.78;;;6.89;100.00
35647;BME280;28680;45.642;13.756;2023-01-25T04:48:03;102430.44;;;6.86;100.00
35647;BME280;28680;45.642;13.756;2023-01-25T04:50:30;102434.66;;;7.37;100.00
35647;BME280;28680;45.642;13.756;2023-01-25T04:52:56;102432.34;;;7.29;100.00
35647;BME280;28680;45.642;13.756;2023-01-25T04:55:22;102414.81;;;7.09;100.00
35647;BME280;28680;45.642;13.756;2023-01-25T04:57:49;102403.00;;;6.99;100.00
35647;BME280;28680;45.642;13.756;2023-01-25T05:00:18;102397.78;;;7.22;100.00
35647;BME280;28680;45.642;13.756;2023-01-25T05:02:44;102399.09;;;7.11;100.00
35647;BME280;28680;45.642;13.756;2023-01-25T05:05:10;102393.59;;;7.18;100.00
35647;BME280;28680;45.642;13.756;2023-01-25T05:07:37;102389.22;;;7.19;100.00
35647;BME280;28680;45.642;13.756;2023-01-25T05:10:03;102391.81;;;7.19;100.00
35647;BME280;28680;45.642;13.756;2023-01-25T05:12:30;102389.66;;;7.96;100.00
35647;BME280;28680;45.642;13.756;2023-01-25T05:14:55;102389.63;;;7.76;100.00
35647;BME280;28680;45.642;13.756;2023-01-25T05:17:21;102400.56;;;7.86;100.00
35647;BME280;28680;45.642;13.756;2023-01-25T05:19:47;102404.56;;;7.94;100.00
35647;BME280;28680;45.642;13.756;2023-01-25T05:22:15;102405.34;;;7.74;100.00
35647;BME280;28680;45.642;13.756;2023-01-25T05:24:42;102395.47;;;7.83;100.00
35647;BME280;28680;45.642;13.756;2023-01-25T05:27:17;102407.03;;;7.31;100.00
35647;BME280;28680;45.642;13.756;2023-01-25T05:29:44;102398.34;;;7.31;100.00
35647;BME280;28680;45.642;13.756;2023-01-25T05:32:17;102398.28;;;7.09;100.00
35647;BME280;28680;45.642;13.756;2023-01-25T05:34:43;102400.91;;;7.09;100.00
35647;BME280;28680;45.642;13.756;2023-01-25T05:37:13;102402.91;;;7.02;100.00
35647;BME280;28680;45.642;13.756;2023-01-25T05:39:39;102413.66;;;6.93;100.00
35647;BME280;28680;45.642;13.756;2023-01-25T05:42:15;102413.78;;;6.90;100.00
35647;BME280;28680;45.642;13.756;2023-01-25T05:44:41;102402.44;;;7.14;100.00
35647;BME280;28680;45.642;13.756;2023-01-25T05:47:12;102407.28;;;7.01;100.00
35647;BME280;28680;45.642;13.756;2023-01-25T05:49:38;102417.25;;;6.90;100.00
35647;BME280;28680;45.642;13.756;2023-01-25T05:52:04;102414.19;;;7.26;100.00
35647;BME280;28680;45.642;13.756;2023-01-25T05:54:30;102408.38;;;7.41;100.00
35647;BME280;28680;45.642;13.756;2023-01-25T05:56:57;102426.38;;;7.26;100.00
35647;BME280;28680;45.642;13.756;2023-01-25T05:59:22;102407.00;;;7.09;100.00
35647;BME280;28680;45.642;13.756;2023-01-25T06:01:48;102398.34;;;7.31;100.00
35647;BME280;28680;45.642;13.756;2023-01-25T06:04:15;102409.88;;;7.01;100.00
35647;BME280;28680;45.642;13.756;2023-01-25T06:06:41;102416.19;;;6.96;100.00
35647;BME280;28680;45.642;13.756;2023-01-25T06:09:08;102400.66;;;7.38;100.00
35647;BME280;28680;45.642;13.756;2023-01-25T06:11:34;102420.63;;;8.07;100.00
35647;BME280;28680;45.642;13.756;2023-01-25T06:14:00;102403.97;;;7.20;100.00
35647;BME280;28680;45.642;13.756;2023-01-25T06:16:26;102407.16;;;7.05;100.00
35647;BME280;28680;45.642;13.756;2023-01-25T06:18:53;102406.72;;;6.92;100.00
35647;BME280;28680;45.642;13.756;2023-01-25T06:21:19;102426.41;;;7.02;100.00
35647;BME280;28680;45.642;13.756;2023-01-25T06:23:45;102428.16;;;7.25;100.00
35647;BME280;28680;45.642;13.756;2023-01-25T06:26:13;102405.09;;;6.89;100.00
35647;BME280;28680;45.642;13.756;2023-01-25T06:28:39;102408.50;;;7.38;100.00
35647;BME280;28680;45.642;13.756;2023-01-25T06:31:15;102416.53;;;7.34;100.00
35647;BME280;28680;45.642;13.756;2023-01-25T06:33:43;102394.00;;;7.08;100.00
35647;BME280;28680;45.642;13.756;2023-01-25T06:36:14;102391.44;;;7.06;100.00
35647;BME280;28680;45.642;13.756;2023-01-25T06:38:41;102407.94;;;7.52;100.00
35647;BME280;28680;45.642;13.756;2023-01-25T06:41:10;102390.16;;;7.40;100.00
35647;BME280;28680;45.642;13.756;2023-01-25T06:43:37;102404.72;;;7.00;100.00
35647;BME280;28680;45.642;13.756;2023-01-25T06:46:09;102399.59;;;6.97;100.00
35647;BME280;28680;45.642;13.756;2023-01-25T06:48:39;102404.59;;;7.27;100.00
35647;BME280;28680;45.642;13.756;2023-01-25T06:51:09;102389.75;;;7.51;100.00
35647;BME280;28680;45.642;13.756;2023-01-25T06:53:38;102388.97;;;7.49;100.00
35647;BME280;28680;45.642;13.756;2023-01-25T06:56:09;102394.03;;;7.30;100.00
35647;BME280;28680;45.642;13.756;2023-01-25T06:58:36;102376.84;;;7.68;100.00
35647;BME280;28680;45.642;13.756;2023-01-25T07:03:31;102388.53;;;7.37;100.00
35647;BME280;28680;45.642;13.756;2023-01-25T07:06:06;102397.50;;;7.74;100.00
35647;BME280;28680;45.642;13.756;2023-01-25T07:08:35;102379.72;;;7.62;100.00
35647;BME280;28680;45.642;13.756;2023-01-25T07:11:04;102383.59;;;7.30;100.00
35647;BME280;28680;45.642;13.756;2023-01-25T07:13:32;102374.72;;;7.34;100.00
35647;BME280;28680;45.642;13.756;2023-01-25T07:16:05;102365.41;;;7.27;100.00
35647;BME280;28680;45.642;13.756;2023-01-25T07:18:32;102357.19;;;7.37;100.00
35647;BME280;28680;45.642;13.756;2023-01-25T07:21:07;102351.38;;;7.29;100.00
35647;BME280;28680;45.642;13.756;2023-01-25T07:23:34;102358.91;;;7.37;100.00
35647;BME280;28680;45.642;13.756;2023-01-25T07:26:05;102347.13;;;7.27;100.00
35647;BME280;28680;45.642;13.756;2023-01-25T07:28:32;102354.97;;;7.27;100.00
35647;BME280;28680;45.642;13.756;2023-01-25T07:31:05;102338.81;;;7.17;100.00
35647;BME280;28680;45.642;13.756;2023-01-25T07:33:34;102347.72;;;7.33;100.00
35647;BME280;28680;45.642;13.756;2023-01-25T07:36:05;102352.38;;;7.49;100.00
35647;BME280;28680;45.642;13.756;2023-01-25T07:38:32;102365.31;;;7.74;100.00
35647;BME280;28680;45.642;13.756;2023-01-25T07:40:58;102340.75;;;7.78;100.00
35647;BME280;28680;45.642;13.756;2023-01-25T07:43:25;102337.09;;;7.82;100.00
35647;BME280;28680;45.642;13.756;2023-01-25T07:45:52;102348.06;;;8.72;100.00
35647;BME280;28680;45.642;13.756;2023-01-25T07:48:19;102349.47;;;8.19;100.00
35647;BME280;28680;45.642;13.756;2023-01-25T07:50:46;102328.28;;;8.05;100.00
35647;BME280;28680;45.642;13.756;2023-01-25T07:53:16;102335.22;;;8.68;100.00
35647;BME280;28680;45.642;13.756;2023-01-25T07:55:41;102321.63;;;9.53;100.00
35647;BME280;28680;45.642;13.756;2023-01-25T07:58:10;102319.56;;;9.77;100.00
35647;BME280;28680;45.642;13.756;2023-01-25T08:00:37;102310.41;;;9.68;100.00
35647;BME280;28680;45.642;13.756;2023-01-25T08:03:03;102339.50;;;9.45;100.00
35647;BME280;28680;45.642;13.756;2023-01-25T08:05:32;102334.47;;;9.40;100.00
35647;BME280;28680;45.642;13.756;2023-01-25T08:07:57;102319.81;;;9.72;100.00
35647;BME280;28680;45.642;13.756;2023-01-25T08:10:23;102329.13;;;9.61;100.00
35647;BME280;28680;45.642;13.756;2023-01-25T08:12:49;102287.06;;;10.32;100.00
35647;BME280;28680;45.642;13.756;2023-01-25T08:15:15;102337.44;;;10.56;100.00
35647;BME280;28680;45.642;13.756;2023-01-25T08:17:41;102333.34;;;10.84;100.00
35647;BME280;28680;45.642;13.756;2023-01-25T08:20:08;102323.59;;;11.02;100.00
35647;BME280;28680;45.642;13.756;2023-01-25T08:22:34;102332.09;;;11.23;100.00
35647;BME280;28680;45.642;13.756;2023-01-25T08:25:04;102327.56;;;11.41;100.00
35647;BME280;28680;45.642;13.756;2023-01-25T08:27:30;102341.06;;;11.19;100.00
35647;BME280;28680;45.642;13.756;2023-01-25T08:29:56;102338.44;;;11.35;100.00
35647;BME280;28680;45.642;13.756;2023-01-25T08:32:21;102311.47;;;11.15;100.00
35647;BME280;28680;45.642;13.756;2023-01-25T08:34:47;102338.50;;;11.49;100.00
35647;BME280;28680;45.642;13.756;2023-01-25T08:37:13;102355.09;;;11.65;100.00
35647;BME280;28680;45.642;13.756;2023-01-25T08:39:39;102322.75;;;11.95;100.00
35647;BME280;28680;45.642;13.756;2023-01-25T08:42:05;102321.91;;;12.09;100.00
35647;BME280;28680;45.642;13.756;2023-01-25T08:44:31;102325.50;;;12.22;100.00
35647;BME280;28680;45.642;13.756;2023-01-25T08:46:57;102312.16;;;12.54;100.00
35647;BME280;28680;45.642;13.756;2023-01-25T08:49:23;102326.16;;;12.83;100.00
35647;BME280;28680;45.642;13.756;2023-01-25T08:51:49;102295.97;;;12.60;100.00
35647;BME280;28680;45.642;13.756;2023-01-25T08:54:15;102287.22;;;12.74;100.00
35647;BME280;28680;45.642;13.756;2023-01-25T08:56:41;102291.06;;;12.83;100.00
35647;BME280;28680;45.642;13.756;2023-01-25T08:59:11;102303.25;;;13.13;100.00
35647;BME280;28680;45.642;13.756;2023-01-25T09:01:37;102296.25;;;12.70;100.00
35647;BME280;28680;45.642;13.756;2023-01-25T09:04:03;102293.09;;;13.06;100.00
35647;BME280;28680;45.642;13.756;2023-01-25T09:06:29;102302.66;;;13.22;100.00
35647;BME280;28680;45.642;13.756;2023-01-25T09:08:56;102311.63;;;13.05;100.00
35647;BME280;28680;45.642;13.756;2023-01-25T09:11:22;102307.41;;;13.02;100.00
35647;BME280;28680;45.642;13.756;2023-01-25T09:13:48;102333.03;;;12.72;100.00
35647;BME280;28680;45.642;13.756;2023-01-25T09:16:18;102322.91;;;12.37;100.00
35647;BME280;28680;45.642;13.756;2023-01-25T09:18:47;102297.72;;;12.88;100.00
35647;BME280;28680;45.642;13.756;2023-01-25T09:21:15;102318.75;;;13.32;100.00
35647;BME280;28680;45.642;13.756;2023-01-25T09:23:42;102339.19;;;13.55;100.00
35647;BME280;28680;45.642;13.756;2023-01-25T09:26:10;102306.53;;;13.16;100.00
35647;BME280;28680;45.642;13.756;2023-01-25T09:28:36;102320.53;;;13.31;100.00
35647;BME280;28680;45.642;13.756;2023-01-25T09:31:05;102333.19;;;13.93;100.00
35647;BME280;28680;45.642;13.756;2023-01-25T09:33:37;102299.03;;;13.77;100.00
35647;BME280;28680;45.642;13.756;2023-01-25T09:36:04;102307.88;;;13.63;100.00
35647;BME280;28680;45.642;13.756;2023-01-25T09:38:31;102306.66;;;13.95;100.00
35647;BME280;28680;45.642;13.756;2023-01-25T09:46:47;102316.09;;;14.37;93.49
35647;BME280;28680;45.642;13.756;2023-01-25T09:54:39;102334.03;;;14.45;93.00
35647;BME280;28680;45.642;13.756;2023-01-25T09:57:32;102308.75;;;13.22;100.00
35647;BME280;28680;45.642;13.756;2023-01-25T10:00:23;102270.00;;;13.77;99.98
35647;BME280;28680;45.642;13.756;2023-01-25T10:05:47;102320.03;;;14.57;100.00
35647;BME280;28680;45.642;13.756;2023-01-25T10:08:37;102308.25;;;14.49;97.35
35647;BME280;28680;45.642;13.756;2023-01-25T10:13:43;102294.66;;;15.16;94.43
35647;BME280;28680;45.642;13.756;2023-01-25T10:22:28;102271.19;;;15.59;77.66
35647;BME280;28680;45.642;13.756;2023-01-25T10:28:22;102258.31;;;16.35;92.71
35647;BME280;28680;45.642;13.756;2023-01-25T10:31:45;102244.19;;;16.57;64.39
35647;BME280;28680;45.642;13.756;2023-01-25T10:33:47;102241.16;;;16.85;62.39
35647;BME280;28680;45.642;13.756;2023-01-25T10:36:23;102230.06;;;16.91;60.86
35647;BME280;28680;45.642;13.756;2023-01-25T10:38:51;102242.63;;;16.66;62.53
35647;BME280;28680;45.642;13.756;2023-01-25T10:41:45;102224.22;;;16.42;63.88
35647;BME280;28680;45.642;13.756;2023-01-25T10:44:13;102224.22;;;16.20;64.76
35647;BME280;28680;45.642;13.756;2023-01-25T10:47:26;102224.47;;;16.16;92.51
35647;BME280;28680;45.642;13.756;2023-01-25T10:49:55;102214.34;;;16.10;100.00
35647;BME280;28680;45.642;13.756;2023-01-25T10:52:31;102169.66;;;16.40;97.22
35647;BME280;28680;45.642;13.756;2023-01-25T10:55:17;102172.44;;;16.82;78.31
35647;BME280;28680;45.642;13.756;2023-01-25T10:57:54;102170.72;;;17.24;70.06
35647;BME280;28680;45.642;13.756;2023-01-25T11:00:32;102157.63;;;17.53;62.15
35647;BME280;28680;45.642;13.756;2023-01-25T11:03:00;102170.84;;;17.96;63.56
35647;BME280;28680;45.642;13.756;2023-01-25T11:05:33;102148.22;;;18.01;60.58
35647;BME280;28680;45.642;13.756;2023-01-25T11:08:39;102112.63;;;18.23;55.24
35647;BME280;28680;45.642;13.756;2023-01-25T11:11:36;102113.75;;;18.21;57.05
35647;BME280;28680;45.642;13.756;2023-01-25T11:14:24;102131.53;;;18.30;52.25
35647;BME280;28680;45.642;13.756;2023-01-25T11:16:55;102123.25;;;18.33;56.59
35647;BME280;28680;45.642;13.756;2023-01-25T11:22:02;102085.00;;;17.95;64.67
35647;BME280;28680;45.642;13.756;2023-01-25T11:24:32;102087.22;;;17.59;54.52
35647;BME280;28680;45.642;13.756;2023-01-25T11:29:41;102071.22;;;17.40;54.71
35647;BME280;28680;45.642;13.756;2023-01-25T11:32:19;102085.59;;;18.08;53.78
35647;BME280;28680;45.642;13.756;2023-01-25T11:34:49;102069.16;;;17.84;51.86
35647;BME280;28680;45.642;13.756;2023-01-25T11:37:20;102059.59;;;18.02;53.01
35647;BME280;28680;45.642;13.756;2023-01-25T11:43:26;102081.88;;;18.21;71.87
35647;BME280;28680;45.642;13.756;2023-01-25T11:49:24;102059.34;;;18.35;55.15
35647;BME280;28680;45.642;13.756;2023-01-25T11:52:33;102060.88;;;18.96;49.24
35647;BME280;28680;45.642;13.756;2023-01-25T12:04:18;102057.09;;;17.70;52.92
35647;BME280;28680;45.642;13.756;2023-01-25T12:06:48;102032.25;;;17.40;54.80
35647;BME280;28680;45.642;13.756;2023-01-25T12:12:20;102055.69;;;18.16;49.30
35647;BME280;28680;45.642;13.756;2023-01-25T12:17:48;102043.47;;;19.48;47.89
35647;BME280;28680;45.642;13.756;2023-01-25T12:29:28;102037.31;;;20.21;68.27
35647;BME280;28680;45.642;13.756;2023-01-25T12:34:52;102042.56;;;20.85;45.58
35647;BME280;28680;45.642;13.756;2023-01-25T12:37:36;102044.50;;;20.83;43.06
35647;BME280;28680;45.642;13.756;2023-01-25T12:40:19;102054.44;;;20.91;42.15
35647;BME280;28680;45.642;13.756;2023-01-25T12:42:55;102043.03;;;21.07;42.85
35647;BME280;28680;45.642;13.756;2023-01-25T12:45:30;102044.59;;;21.17;41.17
35647;BME280;28680;45.642;13.756;2023-01-25T12:48:02;102044.78;;;21.24;40.17
35647;BME280;28680;45.642;13.756;2023-01-25T12:50:54;102039.50;;;21.32;41.38
35647;BME280;28680;45.642;13.756;2023-01-25T12:53:37;102030.84;;;21.38;41.08
35647;BME280;28680;45.642;13.756;2023-01-25T12:56:08;102044.69;;;20.81;40.01
35647;BME280;28680;45.642;13.756;2023-01-25T13:11:39;102015.91;;;20.31;43.73
35647;BME280;28680;45.642;13.756;2023-01-25T13:14:24;102000.66;;;20.59;42.51
35647;BME280;28680;45.642;13.756;2023-01-25T13:19:53;102009.22;;;20.89;42.08
35647;BME280;28680;45.642;13.756;2023-01-25T13:22:58;101976.72;;;21.28;39.75
35647;BME280;28680;45.642;13.756;2023-01-25T13:25:25;101995.13;;;21.05;40.59
35647;BME280;28680;45.642;13.756;2023-01-25T13:27:55;101983.03;;;21.61;42.34
35647;BME280;28680;45.642;13.756;2023-01-25T13:30:51;101972.81;;;20.80;40.26
35647;BME280;28680;45.642;13.756;2023-01-25T13:33:32;101972.16;;;21.12;46.35
35647;BME280;28680;45.642;13.756;2023-01-25T13:36:55;101957.63;;;21.49;42.00
35647;BME280;28680;45.642;13.756;2023-01-25T13:45:15;101958.06;;;19.88;40.93
35647;BME280;28680;45.642;13.756;2023-01-25T13:47:42;101960.47;;;19.81;54.86
35647;BME280;28680;45.642;13.756;2023-01-25T13:50:35;101954.34;;;20.60;42.47
35647;BME280;28680;45.642;13.756;2023-01-25T13:55:54;101938.88;;;20.02;49.61
35647;BME280;28680;45.642;13.756;2023-01-25T13:58:30;101952.16;;;20.38;45.20
35647;BME280;28680;45.642;13.756;2023-01-25T14:01:13;101944.88;;;20.22;56.17
35647;BME280;28680;45.642;13.756;2023-01-25T14:03:47;101937.91;;;19.85;42.31
35647;BME280;28680;45.642;13.756;2023-01-25T14:06:36;101941.53;;;20.02;42.58
35647;BME280;28680;45.642;13.756;2023-01-25T14:09:15;101945.31;;;18.61;43.24
35647;BME280;28680;45.642;13.756;2023-01-25T14:12:00;101934.28;;;17.18;46.70
35647;BME280;28680;45.642;13.756;2023-01-25T14:14:31;101945.06;;;16.95;52.39
35647;BME280;28680;45.642;13.756;2023-01-25T14:17:19;101918.84;;;16.50;53.76
35647;BME280;28680;45.642;13.756;2023-01-25T14:19:53;101923.91;;;16.32;53.94
35647;BME280;28680;45.642;13.756;2023-01-25T14:22:32;101920.25;;;15.79;54.45
35647;BME280;28680;45.642;13.756;2023-01-25T14:25:10;101910.00;;;16.40;55.04
35647;BME280;28680;45.642;13.756;2023-01-25T14:30:21;101906.09;;;16.65;52.69
35647;BME280;28680;45.642;13.756;2023-01-25T14:32:50;101889.72;;;15.09;58.08
35647;BME280;28680;45.642;13.756;2023-01-25T14:35:37;101879.28;;;14.85;68.40
35647;BME280;28680;45.642;13.756;2023-01-25T14:38:36;101903.16;;;15.84;58.61
35647;BME280;28680;45.642;13.756;2023-01-25T14:43:53;101900.75;;;16.34;65.92
35647;BME280;28680;45.642;13.756;2023-01-25T14:46:34;101885.84;;;15.36;64.43
35647;BME280;28680;45.642;13.756;2023-01-25T14:51:55;101881.38;;;14.46;65.00